createdAt,value
2023-02-19T00:00:05.288Z,51.216156
2023-02-19T00:01:05.262Z,51.216152
2023-02-19T00:02:05.265Z,51.216160
2023-02-19T00:03:05.287Z,51.216084
2023-02-19T00:04:05.267Z,51.215923
2023-02-19T00:05:05.320Z,51.216042
2023-02-19T00:06:05.270Z,51.216118
2023-02-19T00:07:05.213Z,51.216148
2023-02-19T00:08:05.222Z,51.216015
2023-02-19T00:09:05.213Z,51.215702
2023-02-19T00:10:05.184Z,51.215816
2023-02-19T00:11:05.227Z,51.215874
2023-02-19T00:12:05.187Z,51.215828
2023-02-19T00:13:05.177Z,51.216011
2023-02-19T00:14:05.160Z,51.215950
2023-02-19T00:15:05.156Z,51.215672
2023-02-19T00:16:05.226Z,51.215832
2023-02-19T00:17:05.179Z,51.215668
2023-02-19T00:18:05.133Z,51.215584
2023-02-19T00:19:05.140Z,51.216114
2023-02-19T00:20:05.130Z,51.216133
2023-02-19T00:21:05.135Z,51.216244
2023-02-19T00:22:05.122Z,51.216179
2023-02-19T00:23:05.109Z,51.216187
2023-02-19T00:24:05.101Z,51.216152
2023-02-19T00:25:05.096Z,51.216183
2023-02-19T00:26:17.156Z,51.216080
2023-02-19T00:27:07.093Z,51.216137
2023-02-19T00:28:05.072Z,51.216095
2023-02-19T00:29:05.080Z,51.215889
2023-02-19T00:30:05.119Z,51.215343
2023-02-19T00:31:05.213Z,51.215031
2023-02-19T00:32:05.120Z,51.215054
2023-02-19T00:33:05.075Z,51.215336
2023-02-19T00:34:05.034Z,51.215923
2023-02-19T00:35:05.033Z,51.216175
2023-02-19T00:36:05.013Z,51.216282
2023-02-19T00:37:05.008Z,51.216171
2023-02-19T00:38:05.003Z,51.216087
2023-02-19T00:39:05.005Z,51.216125
2023-02-19T00:40:04.983Z,51.216106
2023-02-19T00:41:05.028Z,51.216133
2023-02-19T00:42:05.017Z,51.216263
2023-02-19T00:43:05.996Z,51.216228
2023-02-19T00:44:04.980Z,51.216228
2023-02-19T00:45:04.961Z,51.216209
2023-02-19T00:46:04.948Z,51.216217
2023-02-19T00:47:04.943Z,51.216122
2023-02-19T00:48:04.933Z,51.216148
2023-02-19T00:49:05.005Z,51.216026
2023-02-19T00:50:04.908Z,51.216042
2023-02-19T00:51:04.910Z,51.216064
2023-02-19T00:52:04.906Z,51.215775
2023-02-19T00:53:04.906Z,51.215717
2023-02-19T00:54:04.901Z,51.215725
2023-02-19T00:55:04.891Z,51.215878
2023-02-19T00:56:04.871Z,51.215904
2023-02-19T00:57:04.872Z,51.215908
2023-02-19T00:58:04.852Z,51.215939
2023-02-19T00:59:04.862Z,51.216003
2023-02-19T01:00:04.847Z,51.216011
2023-02-19T01:01:04.831Z,51.216003
2023-02-19T01:02:04.826Z,51.216034
2023-02-19T01:03:04.836Z,51.216160
2023-02-19T01:04:06.559Z,51.215706
2023-02-19T01:05:05.811Z,51.216457
2023-02-19T01:06:04.809Z,51.216358
2023-02-19T01:07:04.788Z,51.215996
2023-02-19T01:08:04.779Z,51.216022
2023-02-19T01:09:04.779Z,51.216118
2023-02-19T01:10:04.760Z,51.216179
2023-02-19T01:11:04.799Z,51.216164
2023-02-19T01:12:04.749Z,51.216290
2023-02-19T01:13:04.746Z,51.216297
2023-02-19T01:14:04.740Z,51.216110
2023-02-19T01:15:04.741Z,51.216187
2023-02-19T01:16:04.763Z,51.216290
2023-02-19T01:17:04.729Z,51.215782
2023-02-19T01:18:04.717Z,51.215466
2023-02-19T01:19:04.749Z,51.216030
2023-02-19T01:20:04.691Z,51.216118
2023-02-19T01:21:04.698Z,51.216156
2023-02-19T01:22:04.698Z,51.215961
2023-02-19T01:23:04.673Z,51.216022
2023-02-19T01:24:04.676Z,51.215775
2023-02-19T01:25:04.668Z,51.215908
2023-02-19T01:26:04.644Z,51.215961
2023-02-19T01:27:04.677Z,51.216114
2023-02-19T01:28:04.627Z,51.216087
2023-02-19T01:29:04.632Z,51.216160
2023-02-19T01:30:04.657Z,51.216045
2023-02-19T01:31:04.671Z,51.216164
2023-02-19T01:32:05.022Z,51.216148
2023-02-19T01:33:04.603Z,51.216171
2023-02-19T01:34:04.588Z,51.216095
2023-02-19T01:35:04.578Z,51.216114
2023-02-19T01:36:04.586Z,51.216122
2023-02-19T01:37:04.575Z,51.216187
2023-02-19T01:38:04.576Z,51.216228
2023-02-19T01:39:04.552Z,51.216202
2023-02-19T01:40:04.547Z,51.216042
2023-02-19T01:41:04.543Z,51.215931
2023-02-19T01:42:04.535Z,51.216030
2023-02-19T01:43:04.556Z,51.216091
2023-02-19T01:44:04.634Z,51.216000
2023-02-19T01:45:04.727Z,51.216030
2023-02-19T01:46:04.856Z,51.216152
2023-02-19T01:47:04.645Z,51.216103
2023-02-19T01:48:04.504Z,51.216011
2023-02-19T01:49:04.512Z,51.216110
2023-02-19T01:50:04.493Z,51.216194
2023-02-19T01:51:04.477Z,51.216125
2023-02-19T01:52:04.473Z,51.216110
2023-02-19T01:53:04.484Z,51.216103
2023-02-19T01:54:04.467Z,51.216129
2023-02-19T01:55:04.489Z,51.216183
2023-02-19T01:56:04.456Z,51.216118
2023-02-19T01:57:04.441Z,51.216068
2023-02-19T01:58:04.421Z,51.216110
2023-02-19T01:59:04.431Z,51.216087
2023-02-19T02:00:04.417Z,51.216156
2023-02-19T02:01:04.455Z,51.216236
2023-02-19T02:02:04.429Z,51.216274
2023-02-19T02:03:04.392Z,51.216137
2023-02-19T02:04:04.421Z,51.216118
2023-02-19T02:05:04.370Z,51.216011
2023-02-19T02:06:04.386Z,51.215996
2023-02-19T02:07:04.370Z,51.215981
2023-02-19T02:08:04.354Z,51.216049
2023-02-19T02:09:04.350Z,51.216091
2023-02-19T02:10:04.380Z,51.216133
2023-02-19T02:11:04.341Z,51.216122
2023-02-19T02:12:04.342Z,51.216019
2023-02-19T02:13:04.322Z,51.215908
2023-02-19T02:14:04.303Z,51.216095
2023-02-19T02:15:04.321Z,51.216129
2023-02-19T02:16:04.343Z,51.216007
2023-02-19T02:17:04.307Z,51.216003
2023-02-19T02:18:04.281Z,51.216003
2023-02-19T02:19:04.328Z,51.215931
2023-02-19T02:20:04.275Z,51.215904
2023-02-19T02:21:04.275Z,51.215809
2023-02-19T02:22:04.251Z,51.215878
2023-02-19T02:23:04.244Z,51.216064
2023-02-19T02:24:04.233Z,51.216022
2023-02-19T02:25:04.259Z,51.216164
2023-02-19T02:26:04.236Z,51.216022
2023-02-19T02:27:04.242Z,51.216118
2023-02-19T02:28:04.245Z,51.216053
2023-02-19T02:29:04.221Z,51.216061
2023-02-19T02:30:04.244Z,51.215954
2023-02-19T02:31:04.279Z,51.216179
2023-02-19T02:32:04.293Z,51.216221
2023-02-19T02:33:04.178Z,51.216061
2023-02-19T02:34:04.184Z,51.216213
2023-02-19T02:35:04.168Z,51.216042
2023-02-19T02:36:04.185Z,51.216087
2023-02-19T02:37:04.174Z,51.216148
2023-02-19T02:38:04.160Z,51.216034
2023-02-19T02:39:04.135Z,51.216095
2023-02-19T02:40:04.119Z,51.215847
2023-02-19T02:41:04.120Z,51.215939
2023-02-19T02:42:04.106Z,51.215912
2023-02-19T02:43:04.144Z,51.215919
2023-02-19T02:44:04.085Z,51.215927
2023-02-19T02:45:04.094Z,51.216171
2023-02-19T02:46:04.100Z,51.216076
2023-02-19T02:47:04.080Z,51.215981
2023-02-19T02:48:04.069Z,51.215885
2023-02-19T02:49:04.077Z,51.215870
2023-02-19T02:50:04.047Z,51.216026
2023-02-19T02:51:04.056Z,51.216064
2023-02-19T02:52:04.037Z,51.215958
2023-02-19T02:53:04.030Z,51.215969
2023-02-19T02:54:04.046Z,51.215778
2023-02-19T02:55:04.020Z,51.215698
2023-02-19T02:56:04.015Z,51.215435
2023-02-19T02:57:03.999Z,51.215515
2023-02-19T02:58:03.987Z,51.216042
2023-02-19T02:59:04.014Z,51.216095
2023-02-19T03:00:03.989Z,51.216160
2023-02-19T03:01:03.997Z,51.215973
2023-02-19T03:02:04.018Z,51.215923
2023-02-19T03:03:03.953Z,51.215885
2023-02-19T03:04:03.972Z,51.215919
2023-02-19T03:05:03.964Z,51.215710
2023-02-19T03:06:03.934Z,51.215660
2023-02-19T03:07:03.935Z,51.215805
2023-02-19T03:08:03.922Z,51.215778
2023-02-19T03:09:03.927Z,51.215893
2023-02-19T03:10:03.916Z,51.216034
2023-02-19T03:11:03.942Z,51.216095
2023-02-19T03:12:03.901Z,51.216015
2023-02-19T03:13:03.889Z,51.216022
2023-02-19T03:14:03.875Z,51.216015
2023-02-19T03:15:03.869Z,51.216072
2023-02-19T03:16:03.876Z,51.216137
2023-02-19T03:17:03.858Z,51.216095
2023-02-19T03:18:03.846Z,51.215981
2023-02-19T03:19:03.846Z,51.216011
2023-02-19T03:20:03.865Z,51.216068
2023-02-19T03:21:03.855Z,51.216072
2023-02-19T03:22:03.832Z,51.216026
2023-02-19T03:23:03.818Z,51.216118
2023-02-19T03:24:03.816Z,51.216110
2023-02-19T03:25:03.791Z,51.216164
2023-02-19T03:26:03.808Z,51.216171
2023-02-19T03:27:03.795Z,51.216068
2023-02-19T03:28:03.776Z,51.216133
2023-02-19T03:29:03.771Z,51.216022
2023-02-19T03:30:03.795Z,51.216076
2023-02-19T03:31:03.762Z,51.216064
2023-02-19T03:32:03.865Z,51.215996
2023-02-19T03:33:03.741Z,51.216095
2023-02-19T03:34:03.739Z,51.216072
2023-02-19T03:35:03.729Z,51.216217
2023-02-19T03:36:03.705Z,51.216213
2023-02-19T03:37:03.735Z,51.216011
2023-02-19T03:38:03.729Z,51.215992
2023-02-19T03:39:03.692Z,51.216049
2023-02-19T03:40:03.685Z,51.216095
2023-02-19T03:41:03.674Z,51.216045
2023-02-19T03:42:03.661Z,51.216053
2023-02-19T03:43:03.670Z,51.215900
2023-02-19T03:44:03.658Z,51.215816
2023-02-19T03:45:03.643Z,51.215904
2023-02-19T03:46:03.641Z,51.215950
2023-02-19T03:47:03.694Z,51.215946
2023-02-19T03:48:03.640Z,51.216076
2023-02-19T03:49:03.616Z,51.215923
2023-02-19T03:50:03.616Z,51.215908
2023-02-19T03:51:03.607Z,51.215794
2023-02-19T03:52:03.608Z,51.215965
2023-02-19T03:53:03.583Z,51.215965
2023-02-19T03:54:03.584Z,51.216038
2023-02-19T03:55:03.568Z,51.216145
2023-02-19T03:56:03.577Z,51.216049
2023-02-19T03:57:03.600Z,51.216103
2023-02-19T03:58:03.552Z,51.216064
2023-02-19T03:59:03.553Z,51.216087
2023-02-19T04:00:03.540Z,51.215981
2023-02-19T04:01:03.525Z,51.215801
2023-02-19T04:02:03.575Z,51.215893
2023-02-19T04:03:03.530Z,51.215912
2023-02-19T04:04:03.512Z,51.215988
2023-02-19T04:05:03.518Z,51.215866
2023-02-19T04:06:03.499Z,51.215778
2023-02-19T04:07:03.495Z,51.215740
2023-02-19T04:08:03.505Z,51.215771
2023-02-19T04:09:03.481Z,51.215717
2023-02-19T04:10:03.497Z,51.215870
2023-02-19T04:11:03.487Z,51.215981
2023-02-19T04:12:03.455Z,51.216022
2023-02-19T04:13:03.468Z,51.215900
2023-02-19T04:14:03.444Z,51.215961
2023-02-19T04:15:03.437Z,51.215824
2023-02-19T04:16:03.427Z,51.215729
2023-02-19T04:17:03.419Z,51.215900
2023-02-19T04:18:03.420Z,51.215809
2023-02-19T04:19:03.418Z,51.215885
2023-02-19T04:20:03.389Z,51.215855
2023-02-19T04:21:03.415Z,51.215916
2023-02-19T04:22:03.386Z,51.215908
2023-02-19T04:23:03.378Z,51.215858
2023-02-19T04:24:03.389Z,51.215912
2023-02-19T04:25:03.370Z,51.215946
2023-02-19T04:26:03.355Z,51.216007
2023-02-19T04:27:03.348Z,51.216106
2023-02-19T04:28:03.358Z,51.216137
2023-02-19T04:29:03.354Z,51.216099
2023-02-19T04:30:03.359Z,51.216084
2023-02-19T04:31:03.343Z,51.216011
2023-02-19T04:32:03.340Z,51.215977
2023-02-19T04:33:03.319Z,51.215942
2023-02-19T04:34:03.309Z,51.215977
2023-02-19T04:35:03.287Z,51.216003
2023-02-19T04:36:03.282Z,51.215881
2023-02-19T04:37:03.257Z,51.215885
2023-02-19T04:38:04.295Z,51.216034
2023-02-19T04:39:03.267Z,51.216011
2023-02-19T04:40:03.244Z,51.216030
2023-02-19T04:41:03.239Z,51.216042
2023-02-19T04:42:03.251Z,51.216049
2023-02-19T04:43:03.233Z,51.216061
2023-02-19T04:44:03.218Z,51.216106
2023-02-19T04:45:03.221Z,51.216022
2023-02-19T04:46:03.236Z,51.215981
2023-02-19T04:47:03.196Z,51.216236
2023-02-19T04:48:03.183Z,51.216217
2023-02-19T04:49:03.196Z,51.216118
2023-02-19T04:50:03.197Z,51.216084
2023-02-19T04:51:03.162Z,51.216057
2023-02-19T04:52:03.155Z,51.215977
2023-02-19T04:53:03.175Z,51.215969
2023-02-19T04:54:03.141Z,51.215961
2023-02-19T04:55:03.153Z,51.216095
2023-02-19T04:56:03.125Z,51.216007
2023-02-19T04:57:03.185Z,51.216045
2023-02-19T04:58:03.112Z,51.216038
2023-02-19T04:59:03.101Z,51.216038
2023-02-19T05:00:03.099Z,51.216057
2023-02-19T05:01:03.100Z,51.216118
2023-02-19T05:02:03.094Z,51.216072
2023-02-19T05:03:03.077Z,51.216000
2023-02-19T05:04:03.095Z,51.216095
2023-02-19T05:05:03.095Z,51.216110
2023-02-19T05:06:03.047Z,51.216022
2023-02-19T05:07:03.056Z,51.216099
2023-02-19T05:08:03.042Z,51.216080
2023-02-19T05:09:03.025Z,51.216045
2023-02-19T05:10:03.031Z,51.216042
2023-02-19T05:11:03.039Z,51.216095
2023-02-19T05:12:03.012Z,51.216034
2023-02-19T05:13:03.025Z,51.216080
2023-02-19T05:14:02.993Z,51.216022
2023-02-19T05:15:03.005Z,51.216000
2023-02-19T05:16:03.063Z,51.216057
2023-02-19T05:17:02.973Z,51.216064
2023-02-19T05:18:02.965Z,51.216175
2023-02-19T05:19:02.967Z,51.216179
2023-02-19T05:20:02.949Z,51.216125
2023-02-19T05:21:02.942Z,51.216141
2023-02-19T05:22:02.969Z,51.216087
2023-02-19T05:23:02.947Z,51.216091
2023-02-19T05:24:02.925Z,51.216152
2023-02-19T05:25:02.921Z,51.216145
2023-02-19T05:26:02.914Z,51.215988
2023-02-19T05:27:02.913Z,51.216084
2023-02-19T05:28:02.912Z,51.216206
2023-02-19T05:29:02.899Z,51.216118
2023-02-19T05:30:02.952Z,51.216110
2023-02-19T05:31:02.900Z,51.216198
2023-02-19T05:32:02.913Z,51.216164
2023-02-19T05:33:02.867Z,51.215996
2023-02-19T05:34:02.857Z,51.215996
2023-02-19T05:35:02.850Z,51.216038
2023-02-19T05:36:02.869Z,51.216209
2023-02-19T05:37:02.858Z,51.216244
2023-02-19T05:38:02.833Z,51.216194
2023-02-19T05:39:02.830Z,51.216148
2023-02-19T05:40:02.815Z,51.216103
2023-02-19T05:41:02.837Z,51.215420
2023-02-19T05:42:02.809Z,51.215244
2023-02-19T05:43:02.802Z,51.215191
2023-02-19T05:44:02.798Z,51.215786
2023-02-19T05:45:02.792Z,51.216015
2023-02-19T05:46:02.805Z,51.216038
2023-02-19T05:47:02.798Z,51.216034
2023-02-19T05:48:02.760Z,51.216030
2023-02-19T05:49:02.772Z,51.216099
2023-02-19T05:50:02.748Z,51.216076
2023-02-19T05:51:02.743Z,51.216064
2023-02-19T05:52:02.744Z,51.216114
2023-02-19T05:53:02.747Z,51.216164
2023-02-19T05:54:02.721Z,51.216099
2023-02-19T05:55:02.709Z,51.216156
2023-02-19T05:56:02.692Z,51.216194
2023-02-19T05:57:02.691Z,51.216137
2023-02-19T05:58:02.708Z,51.216187
2023-02-19T05:59:02.684Z,51.216099
2023-02-19T06:00:02.651Z,51.215977
2023-02-19T06:01:02.661Z,51.215767
2023-02-19T06:02:02.662Z,51.215828
2023-02-19T06:03:02.674Z,51.215988
2023-02-19T06:04:02.719Z,51.216106
2023-02-19T06:05:02.638Z,51.216080
2023-02-19T06:06:02.632Z,51.216137
2023-02-19T06:07:02.627Z,51.216152
2023-02-19T06:08:02.612Z,51.216076
2023-02-19T06:09:02.631Z,51.215973
2023-02-19T06:10:02.600Z,51.215912
2023-02-19T06:11:03.611Z,51.215942
2023-02-19T06:12:02.629Z,51.215984
2023-02-19T06:13:02.573Z,51.215977
2023-02-19T06:14:02.590Z,51.215633
2023-02-19T06:15:02.576Z,51.215664
2023-02-19T06:16:02.611Z,51.215687
2023-02-19T06:17:02.569Z,51.215820
2023-02-19T06:18:02.541Z,51.215904
2023-02-19T06:19:02.556Z,51.215843
2023-02-19T06:20:02.548Z,51.215988
2023-02-19T06:21:02.681Z,51.215996
2023-02-19T06:22:02.589Z,51.216232
2023-02-19T06:23:02.516Z,51.216225
2023-02-19T06:24:02.500Z,51.216187
2023-02-19T06:25:02.521Z,51.216209
2023-02-19T06:26:02.500Z,51.215923
2023-02-19T06:27:02.502Z,51.215900
2023-02-19T06:28:02.477Z,51.215729
2023-02-19T06:29:02.475Z,51.215603
2023-02-19T06:30:02.521Z,51.215542
2023-02-19T06:31:02.505Z,51.215855
2023-02-19T06:32:02.604Z,51.215870
2023-02-19T06:33:02.443Z,51.215836
2023-02-19T06:34:02.434Z,51.215988
2023-02-19T06:35:02.458Z,51.216019
2023-02-19T06:36:02.493Z,51.215981
2023-02-19T06:37:02.415Z,51.216137
2023-02-19T06:38:02.410Z,51.216019
2023-02-19T06:39:02.442Z,51.216007
2023-02-19T06:40:02.427Z,51.215965
2023-02-19T06:41:02.421Z,51.215958
2023-02-19T06:42:02.394Z,51.215984
2023-02-19T06:43:02.379Z,51.215881
2023-02-19T06:44:02.369Z,51.215611
2023-02-19T06:45:02.372Z,51.215183
2023-02-19T06:46:02.362Z,51.215275
2023-02-19T06:47:02.384Z,51.215771
2023-02-19T06:48:02.363Z,51.216125
2023-02-19T06:49:02.341Z,51.216343
2023-02-19T06:50:02.325Z,51.216209
2023-02-19T06:51:02.314Z,51.216129
2023-02-19T06:52:02.338Z,51.215813
2023-02-19T06:53:02.309Z,51.215408
2023-02-19T06:54:02.304Z,51.215508
2023-02-19T06:55:02.290Z,51.215748
2023-02-19T06:56:02.274Z,51.215824
2023-02-19T06:57:02.289Z,51.215847
2023-02-19T06:58:02.276Z,51.216053
2023-02-19T06:59:02.266Z,51.216030
2023-02-19T07:00:02.319Z,51.216110
2023-02-19T07:01:02.322Z,51.216103
2023-02-19T07:02:03.235Z,51.216270
2023-02-19T07:03:04.476Z,51.216370
2023-02-19T07:04:02.274Z,51.216415
2023-02-19T07:05:02.264Z,51.216434
2023-02-19T07:06:03.233Z,51.216244
2023-02-19T07:07:02.211Z,51.216053
2023-02-19T07:08:02.214Z,51.216022
2023-02-19T07:09:02.247Z,51.216080
2023-02-19T07:10:02.174Z,51.216038
2023-02-19T07:11:02.175Z,51.216122
2023-02-19T07:12:02.160Z,51.216064
2023-02-19T07:13:02.154Z,51.215893
2023-02-19T07:14:02.223Z,51.215996
2023-02-19T07:15:02.163Z,51.216103
2023-02-19T07:16:02.213Z,51.216263
2023-02-19T07:17:03.124Z,51.216106
2023-02-19T07:18:02.117Z,51.215988
2023-02-19T07:19:02.959Z,51.216011
2023-02-19T07:20:02.148Z,51.216007
2023-02-19T07:21:02.102Z,51.216049
2023-02-19T07:22:02.102Z,51.216297
2023-02-19T07:23:02.080Z,51.216160
2023-02-19T07:24:02.078Z,51.216217
2023-02-19T07:25:02.098Z,51.216320
2023-02-19T07:26:02.079Z,51.216461
2023-02-19T07:27:03.055Z,51.216263
2023-02-19T07:28:02.364Z,51.216175
2023-02-19T07:29:02.048Z,51.216209
2023-02-19T07:30:02.368Z,51.216194
2023-02-19T07:31:02.120Z,51.216167
2023-02-19T07:32:02.035Z,51.216080
2023-02-19T07:33:02.013Z,51.216156
2023-02-19T07:34:02.010Z,51.216164
2023-02-19T07:35:02.044Z,51.216221
2023-02-19T07:36:02.000Z,51.216072
2023-02-19T07:37:01.989Z,51.216042
2023-02-19T07:38:01.981Z,51.216145
2023-02-19T07:39:01.978Z,51.216217
2023-02-19T07:40:01.975Z,51.216148
2023-02-19T07:41:02.013Z,51.216187
2023-02-19T07:42:01.956Z,51.216045
2023-02-19T07:43:01.966Z,51.216099
2023-02-19T07:44:01.949Z,51.215900
2023-02-19T07:45:01.958Z,51.215874
2023-02-19T07:46:01.971Z,51.216057
2023-02-19T07:47:01.928Z,51.216137
2023-02-19T07:48:01.928Z,51.216114
2023-02-19T07:49:01.911Z,51.215961
2023-02-19T07:50:01.901Z,51.216011
2023-02-19T07:51:01.916Z,51.216068
2023-02-19T07:52:01.919Z,51.215874
2023-02-19T07:53:01.892Z,51.216038
2023-02-19T07:54:01.979Z,51.216148
2023-02-19T07:55:01.873Z,51.216133
2023-02-19T07:56:01.869Z,51.216160
2023-02-19T07:57:01.902Z,51.216133
2023-02-19T07:58:01.877Z,51.216228
2023-02-19T07:59:01.841Z,51.216221
2023-02-19T08:00:01.896Z,51.216049
2023-02-19T08:01:01.873Z,51.216103
2023-02-19T08:02:01.826Z,51.216110
2023-02-19T08:03:01.846Z,51.216187
2023-02-19T08:04:01.819Z,51.216011
2023-02-19T08:05:01.814Z,51.216122
2023-02-19T08:06:01.792Z,51.216110
2023-02-19T08:07:01.822Z,51.216064
2023-02-19T08:08:01.803Z,51.216000
2023-02-19T08:09:01.795Z,51.216003
2023-02-19T08:10:01.771Z,51.216015
2023-02-19T08:11:01.757Z,51.216114
2023-02-19T08:12:01.749Z,51.216110
2023-02-19T08:13:01.758Z,51.216049
2023-02-19T08:14:01.745Z,51.216022
2023-02-19T08:15:01.772Z,51.216179
2023-02-19T08:16:16.095Z,51.216122
2023-02-19T08:17:03.777Z,51.216106
2023-02-19T08:18:01.705Z,51.215969
2023-02-19T08:19:01.712Z,51.215870
2023-02-19T08:20:01.701Z,51.215889
2023-02-19T08:21:01.692Z,51.215927
2023-02-19T08:22:01.681Z,51.215923
2023-02-19T08:23:01.680Z,51.215942
2023-02-19T08:24:01.672Z,51.216194
2023-02-19T08:25:01.725Z,51.215679
2023-02-19T08:26:01.654Z,51.215858
2023-02-19T08:27:01.660Z,51.215885
2023-02-19T08:28:01.653Z,51.216122
2023-02-19T08:29:01.632Z,51.216156
2023-02-19T08:30:01.663Z,51.216145
2023-02-19T08:31:01.694Z,51.216099
2023-02-19T08:32:01.671Z,51.216110
2023-02-19T08:33:02.364Z,51.216110
2023-02-19T08:34:02.597Z,51.216038
2023-02-19T08:35:01.583Z,51.216106
2023-02-19T08:36:01.587Z,51.216240
2023-02-19T08:37:01.589Z,51.216198
2023-02-19T08:38:01.576Z,51.216064
2023-02-19T08:39:01.584Z,51.216053
2023-02-19T08:40:01.568Z,51.216007
2023-02-19T08:41:01.559Z,51.216030
2023-02-19T08:42:01.550Z,51.216061
2023-02-19T08:43:01.547Z,51.215996
2023-02-19T08:44:01.535Z,51.216103
2023-02-19T08:45:01.543Z,51.216038
2023-02-19T08:46:01.518Z,51.216053
2023-02-19T08:47:01.502Z,51.216179
2023-02-19T08:48:01.533Z,51.216175
2023-02-19T08:49:01.503Z,51.216095
2023-02-19T08:50:01.499Z,51.215950
2023-02-19T08:51:01.552Z,51.215992
2023-02-19T08:52:01.484Z,51.216064
2023-02-19T08:53:01.468Z,51.216007
2023-02-19T08:54:01.472Z,51.216000
2023-02-19T08:55:01.462Z,51.216080
2023-02-19T08:56:01.452Z,51.216061
2023-02-19T08:57:01.442Z,51.216129
2023-02-19T08:58:01.440Z,51.215973
2023-02-19T08:59:01.436Z,51.216072
2023-02-19T09:00:01.448Z,51.216045
2023-02-19T09:01:01.483Z,51.216087
2023-02-19T09:02:01.405Z,51.216118
2023-02-19T09:03:01.415Z,51.216103
2023-02-19T09:04:01.427Z,51.216133
2023-02-19T09:05:01.384Z,51.216141
2023-02-19T09:06:01.394Z,51.216080
2023-02-19T09:07:01.376Z,51.216129
2023-02-19T09:08:01.372Z,51.216103
2023-02-19T09:09:01.378Z,51.216114
2023-02-19T09:10:01.472Z,51.216053
2023-02-19T09:11:01.344Z,51.215893
2023-02-19T09:12:01.342Z,51.215839
2023-02-19T09:13:01.339Z,51.215923
2023-02-19T09:14:01.336Z,51.216118
2023-02-19T09:15:01.338Z,51.216080
2023-02-19T09:16:01.372Z,51.216064
2023-02-19T09:17:01.308Z,51.216091
2023-02-19T09:18:01.305Z,51.216080
2023-02-19T09:19:01.308Z,51.216076
2023-02-19T09:20:02.362Z,51.216118
2023-02-19T09:21:01.287Z,51.216125
2023-02-19T09:22:01.287Z,51.216190
2023-02-19T09:23:01.292Z,51.216068
2023-02-19T09:24:01.303Z,51.216080
2023-02-19T09:25:01.265Z,51.216022
2023-02-19T09:26:01.279Z,51.216145
2023-02-19T09:27:01.266Z,51.216152
2023-02-19T09:28:01.256Z,51.216160
2023-02-19T09:29:01.252Z,51.216217
2023-02-19T09:30:01.256Z,51.216248
2023-02-19T09:31:01.292Z,51.216259
2023-02-19T09:32:01.301Z,51.216190
2023-02-19T09:33:01.226Z,51.216225
2023-02-19T09:34:01.303Z,51.216179
2023-02-19T09:35:01.194Z,51.216221
2023-02-19T09:36:01.191Z,51.216171
2023-02-19T09:37:01.205Z,51.216217
2023-02-19T09:38:01.194Z,51.216190
2023-02-19T09:39:01.178Z,51.216213
2023-02-19T09:40:01.195Z,51.215996
2023-02-19T09:41:01.172Z,51.216164
2023-02-19T09:42:01.152Z,51.216232
2023-02-19T09:43:01.955Z,51.216248
2023-02-19T09:44:01.125Z,51.216160
2023-02-19T09:45:01.229Z,51.216301
2023-02-19T09:46:01.168Z,51.216267
2023-02-19T09:47:01.121Z,51.215961
2023-02-19T09:48:01.120Z,51.216007
2023-02-19T09:49:01.100Z,51.216175
2023-02-19T09:50:01.109Z,51.216206
2023-02-19T09:51:01.108Z,51.216122
2023-02-19T09:52:01.108Z,51.216084
2023-02-19T09:53:01.078Z,51.216133
2023-02-19T09:54:01.074Z,51.216019
2023-02-19T09:55:01.073Z,51.216141
2023-02-19T09:56:01.069Z,51.216198
2023-02-19T09:57:01.055Z,51.216240
2023-02-19T09:58:01.049Z,51.216274
2023-02-19T09:59:01.040Z,51.216175
2023-02-19T10:00:01.034Z,51.216202
2023-02-19T10:01:01.029Z,51.216125
2023-02-19T10:02:01.019Z,51.216076
2023-02-19T10:03:01.065Z,51.216106
2023-02-19T10:04:01.042Z,51.216248
2023-02-19T10:05:01.003Z,51.216160
2023-02-19T10:06:01.002Z,51.216114
2023-02-19T10:07:00.983Z,51.216034
2023-02-19T10:08:00.981Z,51.215973
2023-02-19T10:09:00.974Z,51.215939
2023-02-19T10:10:00.972Z,51.216061
2023-02-19T10:11:01.003Z,51.216057
2023-02-19T10:12:00.946Z,51.215839
2023-02-19T10:13:00.942Z,51.215954
2023-02-19T10:14:00.955Z,51.216000
2023-02-19T10:15:00.927Z,51.215942
2023-02-19T10:16:00.989Z,51.216080
2023-02-19T10:17:00.913Z,51.215919
2023-02-19T10:18:00.904Z,51.216000
2023-02-19T10:19:00.922Z,51.215942
2023-02-19T10:20:00.897Z,51.216091
2023-02-19T10:21:00.906Z,51.216091
2023-02-19T10:22:00.910Z,51.216011
2023-02-19T10:23:00.882Z,51.215984
2023-02-19T10:24:00.862Z,51.216049
2023-02-19T10:25:00.861Z,51.216137
2023-02-19T10:26:00.862Z,51.216164
2023-02-19T10:27:00.876Z,51.216118
2023-02-19T10:28:00.846Z,51.216164
2023-02-19T10:29:00.836Z,51.216160
2023-02-19T10:30:00.941Z,51.216167
2023-02-19T10:31:00.885Z,51.216114
2023-02-19T10:32:00.928Z,51.216122
2023-02-19T10:33:00.813Z,51.216305
2023-02-19T10:34:00.797Z,51.216381
2023-02-19T10:35:00.817Z,51.216301
2023-02-19T10:36:00.794Z,51.216221
2023-02-19T10:37:00.807Z,51.216171
2023-02-19T10:38:00.793Z,51.216042
2023-02-19T10:39:00.782Z,51.216114
2023-02-19T10:40:00.762Z,51.216160
2023-02-19T10:41:00.761Z,51.216156
2023-02-19T10:42:00.744Z,51.216000
2023-02-19T10:43:00.768Z,51.216084
2023-02-19T10:44:00.728Z,51.216114
2023-02-19T10:45:00.733Z,51.216286
2023-02-19T10:46:01.720Z,51.216499
2023-02-19T10:47:00.717Z,51.216583
2023-02-19T10:48:00.718Z,51.216301
2023-02-19T10:49:00.706Z,51.216286
2023-02-19T10:50:02.560Z,51.216351
2023-02-19T10:51:00.698Z,51.216152
2023-02-19T10:52:00.678Z,51.216019
2023-02-19T10:53:00.690Z,51.216232
2023-02-19T10:54:00.682Z,51.216438
2023-02-19T10:55:00.665Z,51.216400
2023-02-19T10:56:00.676Z,51.216125
2023-02-19T10:57:00.672Z,51.215981
2023-02-19T10:58:00.647Z,51.216217
2023-02-19T10:59:00.647Z,51.216381
2023-02-19T11:00:00.637Z,51.216221
2023-02-19T11:01:00.630Z,51.216328
2023-02-19T11:02:00.682Z,51.216312
2023-02-19T11:03:00.601Z,51.216053
2023-02-19T11:04:00.630Z,51.216087
2023-02-19T11:05:00.594Z,51.215897
2023-02-19T11:06:00.596Z,51.215992
2023-02-19T11:07:00.599Z,51.215950
2023-02-19T11:08:00.643Z,51.215759
2023-02-19T11:09:00.581Z,51.215702
2023-02-19T11:10:00.584Z,51.215614
2023-02-19T11:11:00.578Z,51.215816
2023-02-19T11:12:00.575Z,51.215755
2023-02-19T11:13:00.560Z,51.215832
2023-02-19T11:14:00.570Z,51.215809
2023-02-19T11:15:00.551Z,51.215675
2023-02-19T11:16:00.592Z,51.215672
2023-02-19T11:17:00.518Z,51.215584
2023-02-19T11:18:00.522Z,51.215706
2023-02-19T11:19:00.505Z,51.215675
2023-02-19T11:20:00.518Z,51.215813
2023-02-19T11:21:00.510Z,51.215775
2023-02-19T11:22:00.491Z,51.215889
2023-02-19T11:23:00.488Z,51.215923
2023-02-19T11:24:00.878Z,51.216000